Time;durP1;ratioP1;P1;durP2;ratioP2;P2;SDS_P1;SDS_P2;PMS_P1;PMS_P2;Temp;Humidity;BMP_temperature;BMP_pressure;BME280_temperature;BME280_humidity;BME280_pressure;Samples;Min_cycle;Max_cycle;Signal;HPM_P1;HPM_P2
2022/05/05 00:02:07;;;;;;;12.87;9.37;;;13.60;1.00;;;;;;5119940;28;20249;-71
2022/05/05 00:04:33;;;;;;;13.07;9.13;;;13.60;1.00;;;;;;5120092;28;20539;-71
2022/05/05 00:07:01;;;;;;;11.37;9.03;;;13.70;1.00;;;;;;5119741;28;20179;-71
2022/05/05 00:09:28;;;;;;;15.47;9.73;;;13.70;99.90;;;;;;5120097;28;20167;-70
2022/05/05 00:14:39;;;;;;;10.83;8.37;;;13.80;1.00;;;;;;5120062;28;20206;-71
2022/05/05 00:17:07;;;;;;;16.60;9.43;;;13.80;99.90;;;;;;5119782;28;20212;-71
2022/05/05 00:19:34;;;;;;;17.93;9.30;;;14.00;99.90;;;;;;5119896;28;20168;-72
2022/05/05 00:22:01;;;;;;;14.33;8.70;;;14.10;99.90;;;;;;5119802;28;20163;-71
2022/05/05 00:24:27;;;;;;;12.80;8.33;;;14.10;99.90;;;;;;5119400;28;20175;-72
2022/05/05 00:26:53;;;;;;;15.20;9.20;;;14.20;99.90;;;;;;5119397;28;20185;-72
2022/05/05 00:29:20;;;;;;;9.97;8.03;;;14.30;1.00;;;;;;5119788;28;20256;-71
2022/05/05 00:31:47;;;;;;;11.83;9.10;;;14.40;1.00;;;;;;5116746;28;20197;-71
2022/05/05 00:34:13;;;;;;;15.47;9.07;;;14.40;1.00;;;;;;5098347;28;20230;-70
2022/05/05 00:36:39;;;;;;;16.83;9.73;;;14.40;1.00;;;;;;5116267;28;20208;-71
2022/05/05 00:39:06;;;;;;;15.23;9.77;;;14.50;99.90;;;;;;5116044;28;20267;-70
2022/05/05 00:41:42;;;;;;;15.10;10.10;;;14.50;99.90;;;;;;5116200;28;20173;-70
2022/05/05 00:44:09;;;;;;;14.07;9.63;;;14.50;99.90;;;;;;5116378;28;20665;-71
2022/05/05 00:46:35;;;;;;;14.70;10.07;;;14.50;99.90;;;;;;5116206;28;20201;-71
2022/05/05 00:49:01;;;;;;;14.43;10.17;;;14.40;99.90;;;;;;5116222;28;20175;-71
2022/05/05 00:51:27;;;;;;;15.67;10.20;;;14.50;99.90;;;;;;5115916;28;20172;-70
2022/05/05 00:53:54;;;;;;;13.23;9.77;;;14.40;99.90;;;;;;5115468;28;20199;-71
2022/05/05 00:56:21;;;;;;;14.80;10.43;;;14.40;1.00;;;;;;5115956;28;20183;-71
2022/05/05 00:58:48;;;;;;;15.70;10.90;;;14.30;99.90;;;;;;5115718;28;20214;-71
2022/05/05 01:01:21;;;;;;;15.43;10.33;;;14.30;99.90;;;;;;5116037;28;20178;-70
2022/05/05 01:03:48;;;;;;;13.30;10.77;;;14.30;99.90;;;;;;5115874;28;20527;-70
2022/05/05 01:06:17;;;;;;;17.47;11.80;;;14.30;1.00;;;;;;5115711;28;20205;-71
2022/05/05 01:08:43;;;;;;;18.20;11.00;;;14.20;1.00;;;;;;5115542;28;20249;-72
2022/05/05 01:11:09;;;;;;;15.93;11.23;;;14.20;1.00;;;;;;5115816;28;20177;-70
2022/05/05 01:13:42;;;;;;;17.23;11.57;;;14.20;1.00;;;;;;5115859;28;20594;-70
2022/05/05 01:16:09;;;;;;;18.03;11.67;;;14.20;1.00;;;;;;5115958;28;20203;-72
2022/05/05 01:18:35;;;;;;;15.70;11.93;;;14.30;1.00;;;;;;5115995;28;20304;-71
2022/05/05 01:21:01;;;;;;;18.93;11.90;;;14.20;1.00;;;;;;5115589;28;20246;-71
2022/05/05 01:23:26;;;;;;;16.30;11.33;;;14.30;1.00;;;;;;5115153;28;20259;-70
2022/05/05 01:28:43;;;;;;;17.77;10.87;;;14.30;99.90;;;;;;5115853;28;20556;-70
2022/05/05 01:31:09;;;;;;;17.97;11.50;;;14.30;99.90;;;;;;5115635;28;20239;-71
2022/05/05 01:33:35;;;;;;;16.83;11.40;;;14.30;99.90;;;;;;5115364;28;20199;-71
2022/05/05 01:36:01;;;;;;;16.47;11.30;;;14.40;99.90;;;;;;5115073;28;20167;-70
2022/05/05 01:38:35;;;;;;;20.33;11.93;;;14.40;99.90;;;;;;5115422;28;20179;-70
2022/05/05 01:41:04;;;;;;;20.63;12.80;;;14.40;99.90;;;;;;5115379;28;20158;-70
2022/05/05 01:43:30;;;;;;;20.80;13.47;;;14.40;99.90;;;;;;5114921;28;20175;-71
2022/05/05 01:45:56;;;;;;;23.63;14.10;;;14.40;1.00;;;;;;5115045;28;20182;-71
2022/05/05 01:48:21;;;;;;;23.43;15.43;;;14.30;1.00;;;;;;5115258;28;20178;-70
2022/05/05 01:50:48;;;;;;;26.20;17.40;;;14.30;1.00;;;;;;5114886;28;20194;-71
2022/05/05 01:53:14;;;;;;;26.40;16.27;;;14.40;1.00;;;;;;5114985;28;20185;-70
2022/05/05 01:55:40;;;;;;;27.53;16.23;;;14.40;1.00;;;;;;5114919;28;20219;-71
2022/05/05 01:58:06;;;;;;;23.70;17.17;;;14.60;99.90;;;;;;5114785;28;20721;-71
2022/05/05 02:00:32;;;;;;;27.03;18.90;;;14.50;99.90;;;;;;5114794;28;20208;-70
2022/05/05 02:02:59;;;;;;;26.83;18.73;;;14.50;99.90;;;;;;5114921;28;20645;-71
2022/05/05 02:05:25;;;;;;;26.60;19.70;;;14.50;1.00;;;;;;5114487;28;20202;-70
2022/05/05 02:07:50;;;;;;;29.33;20.30;;;14.50;1.00;;;;;;5114715;28;20209;-70
2022/05/05 02:10:18;;;;;;;27.03;21.03;;;14.50;1.00;;;;;;5114698;28;20203;-70
2022/05/05 02:12:45;;;;;;;31.73;22.10;;;14.40;1.00;;;;;;5114844;28;20232;-70
2022/05/05 02:15:12;;;;;;;27.80;20.67;;;14.40;1.00;;;;;;5114398;28;20207;-70
2022/05/05 02:17:42;;;;;;;33.17;21.00;;;14.40;1.00;;;;;;5114610;28;20172;-71
2022/05/05 02:20:09;;;;;;;27.20;20.83;;;14.60;1.00;;;;;;5114430;28;20193;-70
2022/05/05 02:22:34;;;;;;;31.70;22.73;;;14.70;1.00;;;;;;5114655;28;20220;-70
2022/05/05 02:25:00;;;;;;;33.93;23.90;;;14.70;1.00;;;;;;5114283;28;20171;-70
2022/05/05 02:27:26;;;;;;;30.17;23.60;;;14.80;1.00;;;;;;5114235;28;20244;-71
2022/05/05 02:29:52;;;;;;;36.13;23.60;;;14.80;1.00;;;;;;5114385;28;20173;-70
2022/05/05 02:32:19;;;;;;;33.17;23.00;;;14.70;1.00;;;;;;5114276;28;20167;-70
2022/05/05 02:34:46;;;;;;;33.23;23.63;;;14.60;1.00;;;;;;5113967;28;20199;-71
2022/05/05 02:39:56;;;;;;;41.67;25.33;;;14.60;1.00;;;;;;5114429;28;20227;-71
2022/05/05 02:42:21;;;;;;;39.07;24.73;;;14.60;1.00;;;;;;5113789;28;20171;-71
2022/05/05 02:44:47;;;;;;;36.63;25.90;;;14.60;1.00;;;;;;5114253;28;20636;-71
2022/05/05 02:47:13;;;;;;;36.70;25.90;;;14.70;1.00;;;;;;5114016;28;20182;-71
2022/05/05 02:49:39;;;;;;;38.97;26.33;;;14.40;1.00;;;;;;5113608;28;20648;-70
2022/05/05 02:52:06;;;;;;;37.20;26.50;;;14.30;1.00;;;;;;5113902;28;20285;-70
2022/05/05 02:54:47;;;;;;;36.93;27.37;;;14.30;1.00;;;;;;5113231;28;20211;-70
2022/05/05 02:57:16;;;;;;;36.47;26.77;;;14.20;1.00;;;;;;5113633;28;20332;-70
2022/05/05 02:59:42;;;;;;;37.57;25.80;;;14.00;1.00;;;;;;5113831;28;20535;-71
2022/05/05 03:02:08;;;;;;;37.53;26.27;;;13.80;1.00;;;;;;5113743;28;20175;-71
2022/05/05 03:04:34;;;;;;;37.00;25.67;;;13.70;1.00;;;;;;5113379;28;20182;-71
2022/05/05 03:07:00;;;;;;;43.73;26.63;;;13.70;1.00;;;;;;5113633;28;20176;-71
2022/05/05 03:09:26;;;;;;;38.03;26.07;;;13.70;1.00;;;;;;5113728;28;20195;-70
2022/05/05 03:11:51;;;;;;;37.90;26.57;;;13.60;1.00;;;;;;5113456;28;20213;-70
2022/05/05 03:14:17;;;;;;;33.53;24.90;;;13.70;1.00;;;;;;5113423;28;20211;-72
2022/05/05 03:16:42;;;;;;;35.30;24.93;;;13.80;1.00;;;;;;5113870;28;20178;-72
2022/05/05 03:19:08;;;;;;;41.03;25.57;;;13.80;1.00;;;;;;5113374;28;20179;-71
2022/05/05 03:21:34;;;;;;;36.67;25.63;;;13.80;1.00;;;;;;5112855;28;20554;-72
2022/05/05 03:23:59;;;;;;;42.67;26.60;;;13.70;1.00;;;;;;5113165;28;20167;-71
2022/05/05 03:26:25;;;;;;;39.07;25.47;;;13.80;1.00;;;;;;5113446;28;20262;-71
2022/05/05 03:28:51;;;;;;;39.20;26.03;;;13.70;1.00;;;;;;5095128;28;20178;-71
2022/05/05 03:31:16;;;;;;;36.53;26.13;;;13.70;1.00;;;;;;5113300;28;20250;-72
2022/05/05 03:33:42;;;;;;;34.70;25.60;;;13.70;1.00;;;;;;5113297;28;20214;-72
2022/05/05 03:36:09;;;;;;;34.43;26.00;;;13.60;1.00;;;;;;5112852;28;20167;-71
2022/05/05 03:38:35;;;;;;;42.50;25.43;;;13.70;1.00;;;;;;5113251;28;20198;-72
2022/05/05 03:41:01;;;;;;;33.77;24.37;;;13.60;1.00;;;;;;5113112;28;20167;-71
2022/05/05 03:43:26;;;;;;;39.50;25.53;;;13.60;1.00;;;;;;5113275;28;20261;-71
2022/05/05 03:45:52;;;;;;;37.07;26.33;;;13.60;1.00;;;;;;5112998;28;20199;-72
2022/05/05 03:48:18;;;;;;;43.13;26.47;;;13.50;1.00;;;;;;5112916;28;20202;-71
2022/05/05 03:50:43;;;;;;;37.97;26.43;;;13.40;1.00;;;;;;5112853;28;20643;-72
2022/05/05 03:53:09;;;;;;;39.40;26.57;;;13.40;1.00;;;;;;5112612;28;20175;-72
2022/05/05 03:55:34;;;;;;;38.50;26.60;;;13.50;1.00;;;;;;5112407;28;20630;-72
2022/05/05 03:58:00;;;;;;;43.87;28.10;;;13.40;1.00;;;;;;5112657;28;20352;-71
2022/05/05 04:00:26;;;;;;;40.10;26.77;;;13.30;1.00;;;;;;5113353;28;20515;-71
2022/05/05 04:05:38;;;;;;;40.73;26.87;;;13.30;1.00;;;;;;5113623;28;20167;-70
2022/05/05 04:08:05;;;;;;;39.60;27.00;;;13.30;1.00;;;;;;5116833;28;20182;-71
2022/05/05 04:10:31;;;;;;;44.03;28.20;;;13.30;1.00;;;;;;5116281;28;20277;-70
2022/05/05 04:12:57;;;;;;;38.53;27.47;;;13.20;1.00;;;;;;5116578;28;20215;-71
2022/05/05 04:15:24;;;;;;;35.40;25.80;;;13.20;1.00;;;;;;5116402;28;20285;-71
2022/05/05 04:17:51;;;;;;;40.13;27.27;;;13.20;1.80;;;;;;5116642;28;20250;-70
2022/05/05 04:20:17;;;;;;;44.50;28.23;;;13.20;4.00;;;;;;5116642;28;20175;-70
2022/05/05 04:22:43;;;;;;;39.00;26.70;;;13.20;3.10;;;;;;5116288;28;20171;-70
2022/05/05 04:25:09;;;;;;;47.93;27.80;;;13.20;7.50;;;;;;5115855;28;20164;-70
2022/05/05 04:27:39;;;;;;;40.70;27.50;;;13.20;6.60;;;;;;5116566;28;20275;-70
2022/05/05 04:30:07;;;;;;;44.73;27.97;;;13.20;3.10;;;;;;5116092;28;20246;-70
2022/05/05 04:32:32;;;;;;;38.17;27.43;;;13.20;3.50;;;;;;5115555;28;20638;-71
2022/05/05 04:34:59;;;;;;;39.33;27.43;;;13.20;3.30;;;;;;5116333;28;20260;-72
2022/05/05 04:37:24;;;;;;;40.83;28.53;;;13.20;7.00;;;;;;5115616;28;20174;-71
2022/05/05 04:39:50;;;;;;;38.73;26.70;;;13.30;3.20;;;;;;5115893;28;20164;-71
2022/05/05 04:42:16;;;;;;;39.73;27.33;;;13.30;3.20;;;;;;5116035;28;20171;-70
2022/05/05 04:44:42;;;;;;;42.57;27.37;;;13.30;3.00;;;;;;5115450;28;20630;-70
2022/05/05 04:47:07;;;;;;;40.90;27.27;;;13.30;3.10;;;;;;5115199;28;20159;-70
2022/05/05 04:49:33;;;;;;;38.67;28.07;;;13.40;1.20;;;;;;5115459;28;20171;-71
2022/05/05 04:51:59;;;;;;;41.53;27.43;;;13.40;3.60;;;;;;5115359;28;20175;-72
2022/05/05 04:54:24;;;;;;;39.07;27.30;;;13.50;4.40;;;;;;5115129;28;20278;-71
2022/05/05 04:56:50;;;;;;;36.23;25.83;;;13.60;1.00;;;;;;5115509;28;20644;-71
2022/05/05 04:59:15;;;;;;;39.60;27.33;;;13.70;1.00;;;;;;5114945;28;20219;-71
2022/05/05 05:01:41;;;;;;;35.83;26.83;;;13.70;1.00;;;;;;5115456;28;20167;-70
2022/05/05 05:04:07;;;;;;;39.27;26.03;;;13.70;1.00;;;;;;5114864;28;20246;-71
2022/05/05 05:06:33;;;;;;;40.70;27.43;;;13.90;1.00;;;;;;5115284;28;20167;-71
2022/05/05 05:08:59;;;;;;;41.17;26.83;;;14.10;1.00;;;;;;5115257;28;20168;-71
2022/05/05 05:11:25;;;;;;;41.47;27.00;;;14.40;1.00;;;;;;5114508;28;20163;-71
2022/05/05 05:13:50;;;;;;;44.73;27.23;;;14.60;1.00;;;;;;5096222;28;20294;-71
2022/05/05 05:16:16;;;;;;;40.70;27.53;;;14.80;1.00;;;;;;5114657;28;20224;-72
2022/05/05 05:18:42;;;;;;;36.33;25.97;;;14.70;1.00;;;;;;5113521;28;20160;-72
2022/05/05 05:21:07;;;;;;;36.47;26.10;;;15.00;1.00;;;;;;5114728;28;20159;-72
2022/05/05 05:23:33;;;;;;;37.50;25.97;;;15.10;1.00;;;;;;5114769;28;20168;-71
2022/05/05 05:25:59;;;;;;;40.13;27.47;;;15.40;1.00;;;;;;5114224;28;20224;-71
2022/05/05 05:28:25;;;;;;;41.23;27.57;;;15.50;1.00;;;;;;5113464;28;20187;-70
2022/05/05 05:30:51;;;;;;;37.97;26.70;;;15.20;1.00;;;;;;5113874;28;20175;-71
2022/05/05 05:33:17;;;;;;;38.33;27.57;;;15.10;1.00;;;;;;5114007;28;20182;-71
2022/05/05 05:35:44;;;;;;;38.23;26.33;;;15.10;1.00;;;;;;5114590;28;20186;-71
2022/05/05 05:38:11;;;;;;;39.03;26.77;;;14.70;1.00;;;;;;5114296;28;20184;-71
2022/05/05 05:40:37;;;;;;;39.83;27.50;;;14.80;1.00;;;;;;5113573;28;20182;-72
2022/05/05 05:43:03;;;;;;;39.80;27.53;;;15.10;1.00;;;;;;5113920;28;20542;-72
2022/05/05 05:45:29;;;;;;;39.30;28.53;;;15.30;1.00;;;;;;5114139;28;20167;-70
2022/05/05 05:47:55;;;;;;;41.70;28.00;;;15.40;1.00;;;;;;5113459;28;20178;-71
2022/05/05 05:50:21;;;;;;;37.47;27.07;;;15.30;1.00;;;;;;5114071;28;20254;-71
2022/05/05 05:52:47;;;;;;;36.27;27.43;;;15.30;1.00;;;;;;5113950;28;20637;-71
2022/05/05 05:55:13;;;;;;;39.30;28.07;;;14.80;1.00;;;;;;5112130;28;20211;-70
2022/05/05 05:57:39;;;;;;;42.00;29.30;;;14.70;1.00;;;;;;5113053;28;20223;-71
2022/05/05 06:00:06;;;;;;;42.30;28.83;;;14.80;4.80;;;;;;5113945;28;20573;-71
2022/05/05 06:05:16;;;;;;;45.00;29.73;;;15.00;1.00;;;;;;5108798;28;20190;-73
2022/05/05 06:07:41;;;;;;;42.57;29.70;;;15.00;1.00;;;;;;5112475;28;20163;-72
2022/05/05 06:10:07;;;;;;;44.00;28.70;;;15.10;1.00;;;;;;5106417;28;20229;-73
2022/05/05 06:12:33;;;;;;;38.53;27.60;;;15.10;1.00;;;;;;5109342;28;20182;-72
2022/05/05 06:14:58;;;;;;;39.60;28.07;;;14.90;1.00;;;;;;5112875;28;20287;-71
2022/05/05 06:17:24;;;;;;;35.80;27.00;;;14.70;1.00;;;;;;5103014;28;20167;-72
2022/05/05 06:19:50;;;;;;;39.33;28.07;;;14.80;1.00;;;;;;5105900;28;20195;-72
2022/05/05 06:22:15;;;;;;;44.87;27.93;;;15.00;1.00;;;;;;5112481;28;20517;-72
2022/05/05 06:24:41;;;;;;;38.43;27.47;;;15.30;1.00;;;;;;5112334;28;20537;-72
2022/05/05 06:27:07;;;;;;;38.20;26.70;;;15.30;1.00;;;;;;5111778;28;20199;-71
2022/05/05 06:29:33;;;;;;;38.70;26.50;;;15.40;1.00;;;;;;5111803;28;20183;-72
2022/05/05 06:31:58;;;;;;;42.10;28.03;;;15.60;1.00;;;;;;5110977;28;20168;-71
2022/05/05 06:34:24;;;;;;;36.87;27.00;;;15.80;1.00;;;;;;5111860;28;20209;-73
2022/05/05 06:36:49;;;;;;;42.10;27.67;;;16.30;1.00;;;;;;5109905;28;20179;-72
2022/05/05 06:39:15;;;;;;;41.83;27.80;;;16.60;1.00;;;;;;5112014;28;20274;-70
2022/05/05 06:41:41;;;;;;;36.53;25.97;;;16.60;1.00;;;;;;5110850;28;20201;-71
2022/05/05 06:44:06;;;;;;;43.37;28.40;;;16.30;1.00;;;;;;5111486;28;20187;-71
2022/05/05 06:46:32;;;;;;;38.60;27.53;;;16.60;1.00;;;;;;5102962;28;20187;-73
2022/05/05 06:48:58;;;;;;;37.80;27.00;;;16.90;1.00;;;;;;5104101;28;20653;-72
2022/05/05 06:51:24;;;;;;;38.30;27.10;;;17.00;1.00;;;;;;5100492;28;20189;-72
2022/05/05 06:53:49;;;;;;;40.20;27.93;;;17.10;1.00;;;;;;5101777;28;20207;-73
2022/05/05 06:56:15;;;;;;;42.70;28.03;;;17.10;1.00;;;;;;5095567;28;20661;-70
2022/05/05 06:58:41;;;;;;;39.73;27.53;;;17.00;1.00;;;;;;5106173;28;20334;-70
2022/05/05 07:05:23;;;;;;;41.67;29.67;;;17.10;1.00;;;;;;5111804;28;20290;-71
2022/05/05 07:06:36;;;;;;;39.10;27.73;;;17.20;1.00;;;;;;5107853;28;20203;-72
2022/05/05 07:11:45;;;;;;;37.63;28.17;;;17.00;1.00;;;;;;5094901;28;20269;-72
2022/05/05 07:14:12;;;;;;;41.73;29.83;;;17.00;1.00;;;;;;5100675;28;20211;-70
2022/05/05 07:16:38;;;;;;;40.33;29.33;;;16.90;1.00;;;;;;5107723;28;20199;-70
2022/05/05 07:19:04;;;;;;;37.60;28.83;;;16.90;1.00;;;;;;5110746;28;20202;-70
2022/05/05 07:21:30;;;;;;;41.00;29.43;;;16.80;1.00;;;;;;5111405;28;20166;-70
2022/05/05 07:23:56;;;;;;;40.87;30.07;;;16.90;1.00;;;;;;5110432;28;20167;-72
2022/05/05 07:26:22;;;;;;;40.50;28.80;;;16.90;1.00;;;;;;5110486;28;20260;-72
2022/05/05 07:28:48;;;;;;;39.43;29.10;;;16.60;1.00;;;;;;5101479;28;20342;-72
2022/05/05 07:31:13;;;;;;;40.67;29.33;;;16.70;1.00;;;;;;5108204;28;20182;-72
2022/05/05 07:33:39;;;;;;;41.87;30.13;;;16.70;1.00;;;;;;5109833;28;20199;-70
2022/05/05 07:36:05;;;;;;;43.93;30.90;;;16.70;1.00;;;;;;5103779;28;20639;-72
2022/05/05 07:38:31;;;;;;;44.37;31.07;;;16.70;1.00;;;;;;5110106;28;20183;-70
2022/05/05 07:40:57;;;;;;;38.43;29.63;;;16.70;1.00;;;;;;5109612;28;20688;-73
2022/05/05 07:43:23;;;;;;;41.13;29.93;;;16.80;1.00;;;;;;5115009;28;20221;-71
2022/05/05 07:45:49;;;;;;;41.80;29.83;;;16.80;1.00;;;;;;5108948;28;20195;-71
2022/05/05 07:48:15;;;;;;;45.30;30.00;;;17.10;1.00;;;;;;5109532;28;20646;-72
2022/05/05 07:50:40;;;;;;;40.00;29.77;;;17.10;1.00;;;;;;5113680;28;20179;-70
2022/05/05 07:53:06;;;;;;;43.13;31.10;;;17.10;1.00;;;;;;5114994;28;20541;-71
2022/05/05 07:55:32;;;;;;;41.57;29.87;;;17.30;1.00;;;;;;5113809;28;20254;-74
2022/05/05 07:57:57;;;;;;;43.30;29.77;;;17.50;1.00;;;;;;5114115;28;20232;-73
2022/05/05 08:00:23;;;;;;;39.47;27.93;;;17.20;1.00;;;;;;5114421;28;20596;-69
2022/05/05 08:02:49;;;;;;;39.47;27.30;;;17.50;1.00;;;;;;5112725;28;20175;-71
2022/05/05 08:05:15;;;;;;;37.27;26.57;;;17.70;1.00;;;;;;5114439;28;20619;-71
2022/05/05 08:07:44;;;;;;;38.30;29.03;;;17.90;1.00;;;;;;5113797;28;20182;-70
2022/05/05 08:10:10;;;;;;;39.30;28.13;;;18.10;99.90;;;;;;5114273;28;20254;-72
2022/05/05 08:12:36;;;;;;;39.83;28.20;;;18.10;99.90;;;;;;5107857;28;20388;-70
2022/05/05 08:15:02;;;;;;;41.10;27.92;;;18.50;99.90;;;;;;5110885;28;20203;-72
2022/05/05 08:17:28;;;;;;;35.42;26.70;;;18.80;1.00;;;;;;5112364;28;20224;-72
2022/05/05 08:19:54;;;;;;;33.67;26.00;;;19.00;1.00;;;;;;5114459;28;20246;-73
2022/05/05 08:22:20;;;;;;;33.45;24.65;;;19.20;1.00;;;;;;5113437;28;20328;-73
2022/05/05 08:30:14;;;;;;;35.03;26.27;;;18.90;1.00;;;;;;5111113;28;20170;-75
2022/05/05 08:32:40;;;;;;;35.33;27.58;;;19.00;1.00;;;;;;5107165;28;20182;-74
2022/05/05 08:35:06;;;;;;;38.85;27.10;;;19.10;1.00;;;;;;5111267;28;20296;-73
2022/05/05 08:37:31;;;;;;;35.90;26.45;;;19.00;99.90;;;;;;5113521;28;20559;-73
2022/05/05 08:39:57;;;;;;;35.08;26.83;;;19.30;99.90;;;;;;5113433;28;20220;-73
2022/05/05 08:42:24;;;;;;;35.72;26.13;;;19.20;1.00;;;;;;5113761;28;20254;-71
2022/05/05 08:44:50;;;;;;;32.35;25.02;;;19.10;99.90;;;;;;5113639;28;20171;-72
2022/05/05 08:47:17;;;;;;;32.65;25.52;;;18.90;1.00;;;;;;5111634;28;20163;-72
2022/05/05 08:49:43;;;;;;;32.72;25.25;;;19.00;1.00;;;;;;5113263;28;20171;-72
2022/05/05 08:52:11;;;;;;;32.75;25.30;;;19.00;1.00;;;;;;5107166;28;20566;-75
2022/05/05 08:54:39;;;;;;;31.00;23.90;;;19.60;1.00;;;;;;5113374;28;20203;-72
2022/05/05 08:57:05;;;;;;;32.40;24.40;;;20.20;5.40;;;;;;5113210;28;20253;-71
2022/05/05 08:59:31;;;;;;;27.60;22.30;;;20.40;99.90;;;;;;5114102;28;20741;-71
2022/05/05 09:01:57;;;;;;;28.40;21.88;;;20.40;1.00;;;;;;5113028;28;20258;-73
2022/05/05 09:04:22;;;;;;;27.38;22.52;;;20.60;1.00;;;;;;5113739;28;20586;-74
2022/05/05 09:06:50;;;;;;;26.83;22.65;;;20.40;1.00;;;;;;5106414;28;20179;-77
2022/05/05 09:09:26;;;;;;;28.08;22.20;;;20.70;99.90;;;;;;5102586;28;20253;-75
2022/05/05 09:12:16;;;;;;;29.50;24.20;;;20.60;99.90;;;;;;5089814;28;20175;-73
2022/05/05 09:14:49;;;;;;;31.58;23.55;;;21.40;99.90;;;;;;5112104;28;20206;-72
2022/05/05 09:17:28;;;;;;;28.55;23.42;;;21.20;22.70;;;;;;5112617;28;20171;-72
2022/05/05 09:19:57;;;;;;;28.10;23.20;;;21.70;1.00;;;;;;5113163;28;20304;-74
2022/05/05 09:22:24;;;;;;;32.53;24.23;;;21.30;1.00;;;;;;5111725;28;20178;-71
2022/05/05 09:24:52;;;;;;;31.65;24.90;;;21.00;99.90;;;;;;5109781;28;20190;-72
2022/05/05 09:27:24;;;;;;;32.20;24.20;;;20.40;1.00;;;;;;5113775;28;20274;-72
2022/05/05 09:30:08;;;;;;;32.22;24.48;;;20.20;99.90;;;;;;5111474;28;20171;-72
2022/05/05 09:32:35;;;;;;;30.25;24.05;;;20.10;99.90;;;;;;5113090;28;20186;-73
2022/05/05 09:35:07;;;;;;;29.90;24.83;;;20.00;1.00;;;;;;5112951;28;20653;-72
2022/05/05 09:37:33;;;;;;;30.27;24.50;;;20.10;99.90;;;;;;5111292;28;20504;-73
2022/05/05 09:40:00;;;;;;;28.52;23.58;;;20.10;1.00;;;;;;5112878;28;20240;-73
2022/05/05 09:42:43;;;;;;;31.08;23.17;;;20.10;1.00;;;;;;5113764;28;20657;-73
2022/05/05 09:45:39;;;;;;;31.60;23.20;;;19.90;1.00;;;;;;5112981;28;20175;-73
2022/05/05 09:48:06;;;;;;;27.70;22.08;;;19.80;1.00;;;;;;5112073;28;20175;-70
2022/05/05 09:50:34;;;;;;;24.65;20.92;;;20.10;1.00;;;;;;5107708;28;20175;-71
2022/05/05 09:58:39;;;;;;;26.38;21.42;;;21.00;92.30;;;;;;5104454;28;20275;-73
2022/05/05 10:04:00;;;;;;;25.80;21.17;;;21.50;1.00;;;;;;5110412;28;20175;-73
2022/05/05 10:06:34;;;;;;;25.40;20.50;;;21.90;1.00;;;;;;5099728;28;20212;-76
2022/05/05 10:09:05;;;;;;;23.33;20.08;;;22.80;1.00;;;;;;5112547;28;20178;-73
2022/05/05 10:11:32;;;;;;;23.65;19.88;;;23.20;99.90;;;;;;5112341;28;20250;-74
2022/05/05 10:14:03;;;;;;;24.42;20.98;;;23.70;99.90;;;;;;5110539;28;20191;-77
2022/05/05 10:16:32;;;;;;;23.90;21.27;;;23.80;99.90;;;;;;5111870;28;20168;-79
2022/05/05 10:18:59;;;;;;;23.42;20.70;;;24.00;99.90;;;;;;5112470;28;20179;-76
2022/05/05 10:22:09;;;;;;;22.52;20.13;;;24.00;99.90;;;;;;5112701;28;20169;-75
2022/05/05 10:24:51;;;;;;;21.60;18.92;;;23.80;99.90;;;;;;5010154;28;20201;-74
2022/05/05 10:27:17;;;;;;;22.48;19.15;;;24.70;99.90;;;;;;5007238;28;20237;-73
2022/05/05 10:29:46;;;;;;;20.23;18.10;;;24.80;99.90;;;;;;5003306;28;20698;-75
2022/05/05 10:32:16;;;;;;;19.23;17.17;;;25.20;99.90;;;;;;5003628;28;20251;-73
2022/05/05 10:34:45;;;;;;;21.83;18.77;;;25.20;99.90;;;;;;5001397;28;20300;-78
2022/05/05 10:37:17;;;;;;;19.45;17.25;;;25.10;99.90;;;;;;5007045;28;20175;-79
2022/05/05 10:39:47;;;;;;;20.35;18.25;;;25.40;99.90;;;;;;5009166;28;20253;-77
2022/05/05 10:42:21;;;;;;;19.95;17.60;;;25.40;99.90;;;;;;5004077;28;20189;-74
2022/05/05 10:45:12;;;;;;;19.85;17.73;;;26.00;99.90;;;;;;5002543;28;21096;-80
2022/05/05 10:47:49;;;;;;;18.20;16.20;;;25.30;99.90;;;;;;5001138;28;20680;-79
2022/05/05 10:53:36;;;;;;;16.20;14.38;;;24.50;99.90;;;;;;5002751;28;20749;-79
2022/05/05 10:56:25;;;;;;;15.18;13.65;;;24.80;99.90;;;;;;5001570;28;20183;-78
2022/05/05 10:59:07;;;;;;;15.77;12.45;;;25.70;99.90;;;;;;4999677;28;20233;-75
2022/05/05 11:01:42;;;;;;;13.75;12.43;;;26.80;99.90;;;;;;5055105;28;20183;-80
2022/05/05 11:04:15;;;;;;;14.93;12.60;;;27.00;99.90;;;;;;5084675;28;20183;-78
2022/05/05 11:06:45;;;;;;;15.48;13.25;;;27.60;99.90;;;;;;5088029;28;20167;-80
2022/05/05 11:09:29;;;;;;;17.85;13.80;;;28.90;99.90;;;;;;5092026;28;20164;-82
2022/05/05 11:12:32;;;;;;;12.82;11.52;;;29.40;99.90;;;;;;5091166;28;20170;-80
2022/05/05 11:23:45;;;;;;;13.63;10.70;;;29.50;95.20;;;;;;5090440;28;20224;-76
2022/05/05 11:26:13;;;;;;;12.05;10.82;;;29.50;99.90;;;;;;5087400;28;20315;-77
2022/05/05 11:28:39;;;;;;;12.23;10.93;;;29.80;97.80;;;;;;5088895;28;20212;-78
2022/05/05 11:31:18;;;;;;;12.55;11.35;;;29.50;91.30;;;;;;5088457;28;20540;-79
2022/05/05 11:33:48;;;;;;;13.50;12.25;;;29.40;91.10;;;;;;5086500;28;20207;-76
2022/05/05 11:36:13;;;;;;;13.93;12.63;;;28.40;96.40;;;;;;5087764;28;20183;-77
2022/05/05 11:38:41;;;;;;;15.93;14.25;;;27.70;99.90;;;;;;5089364;28;20222;-76
2022/05/05 11:41:07;;;;;;;16.13;14.45;;;26.10;99.90;;;;;;5085474;28;20221;-75
2022/05/05 11:46:19;;;;;;;17.80;15.23;;;25.10;99.90;;;;;;5070990;28;20260;-75
2022/05/05 11:48:52;;;;;;;17.45;15.73;;;23.90;99.90;;;;;;5078416;28;20691;-73
2022/05/05 11:51:26;;;;;;;17.40;15.60;;;23.20;99.90;;;;;;5091402;28;20203;-74
2022/05/05 11:54:04;;;;;;;20.95;15.90;;;22.40;1.00;;;;;;5090920;28;20208;-72
2022/05/05 11:56:30;;;;;;;17.38;15.52;;;22.10;99.90;;;;;;5090289;28;20270;-74
2022/05/05 12:01:52;;;;;;;17.05;14.93;;;21.60;95.40;;;;;;5109934;28;20182;-71
2022/05/05 12:04:19;;;;;;;17.40;15.60;;;21.40;41.60;;;;;;5111120;28;20528;-71
2022/05/05 12:06:45;;;;;;;19.50;16.33;;;21.10;99.90;;;;;;5110847;28;20175;-73
2022/05/05 12:09:13;;;;;;;18.38;16.45;;;20.90;1.00;;;;;;5111328;28;20195;-71
2022/05/05 12:11:38;;;;;;;18.63;16.83;;;20.80;99.90;;;;;;5111448;28;20211;-74
2022/05/05 12:14:11;;;;;;;20.55;17.00;;;20.80;1.00;;;;;;5094523;28;20237;-72
2022/05/05 12:16:37;;;;;;;19.05;17.00;;;20.50;99.90;;;;;;5110609;28;20183;-73
2022/05/05 12:19:13;;;;;;;18.40;16.50;;;20.40;1.00;;;;;;5111756;28;20175;-71
2022/05/05 12:21:53;;;;;;;20.33;16.90;;;20.50;99.90;;;;;;5108762;28;20189;-72
2022/05/05 12:24:23;;;;;;;17.42;15.43;;;20.60;99.90;;;;;;5110945;28;20708;-74
2022/05/05 12:27:06;;;;;;;20.35;15.48;;;20.60;99.90;;;;;;5111658;28;20198;-75
2022/05/05 12:29:43;;;;;;;16.02;13.95;;;20.90;1.00;;;;;;5114283;28;20159;-70
2022/05/05 12:32:17;;;;;;;15.57;13.85;;;20.70;99.90;;;;;;5111732;28;20175;-75
2022/05/05 12:34:43;;;;;;;16.70;13.73;;;20.60;1.00;;;;;;5095839;28;20226;-74
2022/05/05 12:37:16;;;;;;;15.88;14.25;;;20.80;99.90;;;;;;5114704;28;20171;-75
2022/05/05 12:40:01;;;;;;;17.67;14.80;;;21.20;1.00;;;;;;5105269;28;20175;-73
2022/05/05 12:42:48;;;;;;;17.20;15.40;;;21.30;1.00;;;;;;5113539;28;20169;-75
2022/05/05 12:45:24;;;;;;;16.38;14.77;;;21.10;1.00;;;;;;5111336;28;20175;-74
2022/05/05 12:47:51;;;;;;;18.27;16.35;;;21.00;1.00;;;;;;5114469;28;20175;-74
2022/05/05 12:50:34;;;;;;;18.40;16.10;;;20.90;1.00;;;;;;5115145;28;20254;-75
2022/05/05 13:01:26;;;;;;;15.23;13.73;;;21.80;1.00;;;;;;5101595;28;20245;-74
2022/05/05 13:03:55;;;;;;;14.85;13.45;;;22.10;1.00;;;;;;5104553;28;20740;-78
2022/05/05 13:06:22;;;;;;;13.73;12.35;;;22.20;1.00;;;;;;5095602;28;20270;-76
2022/05/05 13:08:48;;;;;;;12.80;11.48;;;22.30;1.00;;;;;;5102396;28;20241;-77
2022/05/05 13:11:14;;;;;;;12.15;10.70;;;22.70;99.90;;;;;;5108546;28;20193;-76
2022/05/05 13:13:42;;;;;;;12.05;10.85;;;23.00;99.90;;;;;;5106784;28;20630;-77
2022/05/05 13:16:07;;;;;;;11.15;10.00;;;22.90;99.90;;;;;;5112998;28;20167;-76
2022/05/05 13:18:33;;;;;;;14.15;9.70;;;22.50;99.90;;;;;;5112813;28;20220;-73
2022/05/05 13:20:59;;;;;;;11.75;9.35;;;22.50;99.90;;;;;;5109645;28;20546;-74
2022/05/05 13:23:24;;;;;;;11.73;10.57;;;22.70;99.90;;;;;;5112364;28;20254;-74
2022/05/05 13:25:50;;;;;;;11.30;10.20;;;22.80;99.90;;;;;;5111553;28;20194;-76
2022/05/05 13:28:16;;;;;;;11.00;9.90;;;22.60;99.90;;;;;;5108161;28;20175;-77
2022/05/05 13:30:41;;;;;;;12.52;9.85;;;22.80;99.90;;;;;;5112962;28;20918;-75
2022/05/05 13:33:07;;;;;;;11.43;10.07;;;22.90;99.90;;;;;;5113548;28;20175;-78
2022/05/05 13:35:32;;;;;;;11.77;10.60;;;23.10;99.90;;;;;;5110570;28;20814;-75
2022/05/05 13:37:58;;;;;;;11.85;10.35;;;23.40;99.90;;;;;;5092570;28;20187;-78